createdAt,value
2019-03-08T00:00:19.277Z,23.39
2019-03-08T00:01:19.312Z,23.42
2019-03-08T00:02:19.303Z,23.31
2019-03-08T00:03:19.246Z,23.29
2019-03-08T00:04:19.253Z,23.22
2019-03-08T00:05:19.244Z,23.16
2019-03-08T00:06:19.241Z,23.22
2019-03-08T00:07:19.226Z,23.22
2019-03-08T00:08:19.260Z,23.22
2019-03-08T00:09:19.254Z,23.32
2019-03-08T00:10:19.200Z,23.25
2019-03-08T00:11:19.211Z,23.34
2019-03-08T00:12:19.206Z,23.25
2019-03-08T00:13:19.173Z,23.19
2019-03-08T00:14:19.249Z,23.26
2019-03-08T00:15:19.182Z,23.29
2019-03-08T00:16:19.180Z,23.37
2019-03-08T00:17:19.178Z,23.38
2019-03-08T00:18:19.155Z,23.38
2019-03-08T00:19:19.154Z,23.35
2019-03-08T00:20:19.138Z,23.26
2019-03-08T00:21:19.113Z,23.35
2019-03-08T00:22:19.170Z,23.22
2019-03-08T00:23:19.120Z,23.35
2019-03-08T00:24:19.101Z,23.22
2019-03-08T00:25:19.120Z,23.34
2019-03-08T00:26:19.087Z,23.26
2019-03-08T00:27:19.105Z,23.31
2019-03-08T00:28:19.079Z,23.21
2019-03-08T00:29:19.085Z,23.23
2019-03-08T00:30:19.084Z,23.09
2019-03-08T00:31:19.063Z,23.14
2019-03-08T00:32:19.054Z,23.04
2019-03-08T00:33:19.046Z,23.14
2019-03-08T00:34:19.037Z,23.15
2019-03-08T00:35:19.032Z,23.26
2019-03-08T00:36:19.052Z,23.23
2019-03-08T00:37:19.019Z,23.19
2019-03-08T00:38:19.063Z,23.35
2019-03-08T00:39:19.017Z,23.23
2019-03-08T00:40:19.018Z,23.23
2019-03-08T00:41:18.987Z,23.25
2019-03-08T00:42:18.988Z,23.14
2019-03-08T00:43:19.001Z,23.18
2019-03-08T00:44:18.980Z,23.15
2019-03-08T00:45:18.963Z,23.14
2019-03-08T00:46:18.951Z,23.15
2019-03-08T00:47:18.953Z,23.15
2019-03-08T00:48:18.952Z,23.23
2019-03-08T00:49:18.954Z,23.19
2019-03-08T00:50:18.949Z,23.21
2019-03-08T00:51:18.941Z,23.14
2019-03-08T00:52:18.932Z,23.18
2019-03-08T00:53:18.931Z,23.12
2019-03-08T00:54:18.911Z,23.12
2019-03-08T00:55:18.916Z,23.11
2019-03-08T00:56:18.903Z,23.07
2019-03-08T00:57:18.894Z,23.00
2019-03-08T00:58:18.925Z,22.96
2019-03-08T00:59:18.887Z,22.97
2019-03-08T01:00:18.857Z,22.99
2019-03-08T01:01:18.889Z,23.00
2019-03-08T01:02:18.851Z,22.88
2019-03-08T01:03:18.862Z,23.00
2019-03-08T01:04:18.841Z,22.91
2019-03-08T01:05:18.836Z,22.96
2019-03-08T01:06:18.851Z,23.04
2019-03-08T01:07:18.822Z,23.00
2019-03-08T01:08:19.015Z,23.06
2019-03-08T01:09:18.821Z,22.99
2019-03-08T01:10:18.806Z,22.96
2019-03-08T01:11:18.841Z,23.03
2019-03-08T01:12:18.791Z,23.01
2019-03-08T01:13:18.786Z,23.01
2019-03-08T01:14:18.765Z,23.03
2019-03-08T01:15:18.764Z,22.99
2019-03-08T01:16:18.803Z,22.94
2019-03-08T01:17:18.773Z,23.00
2019-03-08T01:18:18.744Z,22.99
2019-03-08T01:19:18.744Z,23.06
2019-03-08T01:20:18.743Z,23.06
2019-03-08T01:21:18.740Z,23.09
2019-03-08T01:22:18.717Z,23.07
2019-03-08T01:23:18.717Z,23.06
2019-03-08T01:24:18.713Z,23.07
2019-03-08T01:25:18.688Z,23.09
2019-03-08T01:26:18.915Z,23.06
2019-03-08T01:27:18.700Z,23.04
2019-03-08T01:28:18.687Z,23.00
2019-03-08T01:29:18.670Z,23.11
2019-03-08T01:30:18.670Z,23.01
2019-03-08T01:31:18.658Z,23.00
2019-03-08T01:32:18.662Z,22.94
2019-03-08T01:33:18.646Z,23.03
2019-03-08T01:34:18.641Z,23.06
2019-03-08T01:35:19.790Z,23.07
2019-03-08T01:36:18.674Z,23.09
2019-03-08T01:37:20.436Z,23.04
2019-03-08T01:38:18.620Z,22.97
2019-03-08T01:39:18.620Z,22.97
2019-03-08T01:40:18.612Z,22.89
2019-03-08T01:41:18.613Z,23.04
2019-03-08T01:42:18.572Z,23.07
2019-03-08T01:43:18.589Z,23.09
2019-03-08T01:44:18.574Z,23.01
2019-03-08T01:45:18.613Z,23.07
2019-03-08T01:46:18.612Z,23.15
2019-03-08T01:47:18.581Z,23.07
2019-03-08T01:48:18.595Z,23.12
2019-03-08T01:49:18.551Z,23.26
2019-03-08T01:50:18.534Z,23.16
2019-03-08T01:51:18.539Z,23.22
2019-03-08T01:52:18.534Z,23.18
2019-03-08T01:53:18.506Z,23.16
2019-03-08T01:54:18.532Z,23.12
2019-03-08T01:55:18.513Z,23.09
2019-03-08T01:56:18.485Z,22.99
2019-03-08T01:57:18.520Z,22.99
2019-03-08T01:58:18.505Z,23.00
2019-03-08T01:59:18.478Z,22.97
2019-03-08T02:00:18.472Z,22.94
2019-03-08T02:01:18.452Z,22.99
2019-03-08T02:02:18.453Z,23.00
2019-03-08T02:03:18.456Z,22.89
2019-03-08T02:04:18.446Z,23.00
2019-03-08T02:05:18.446Z,22.97
2019-03-08T02:06:18.444Z,22.91
2019-03-08T02:07:18.444Z,22.96
2019-03-08T02:08:18.429Z,22.97
2019-03-08T02:09:18.416Z,22.94
2019-03-08T02:10:18.418Z,22.99
2019-03-08T02:11:18.410Z,23.09
2019-03-08T02:12:18.394Z,22.94
2019-03-08T02:13:18.398Z,23.07
2019-03-08T02:14:18.359Z,23.06
2019-03-08T02:15:18.358Z,23.00
2019-03-08T02:16:18.372Z,22.94
2019-03-08T02:17:18.376Z,22.96
2019-03-08T02:18:18.354Z,22.97
2019-03-08T02:19:18.351Z,22.93
2019-03-08T02:20:18.353Z,22.93
2019-03-08T02:21:18.344Z,23.01
2019-03-08T02:22:18.327Z,23.07
2019-03-08T02:23:18.322Z,23.04
2019-03-08T02:24:18.366Z,23.00
2019-03-08T02:25:18.302Z,23.07
2019-03-08T02:26:18.294Z,23.00
2019-03-08T02:27:18.285Z,23.11
2019-03-08T02:28:18.284Z,23.03
2019-03-08T02:29:18.269Z,23.00
2019-03-08T02:30:18.283Z,23.01
2019-03-08T02:31:18.312Z,22.97
2019-03-08T02:32:18.257Z,22.88
2019-03-08T02:33:18.265Z,22.96
2019-03-08T02:34:18.257Z,22.99
2019-03-08T02:35:18.324Z,22.88
2019-03-08T02:36:18.218Z,22.91
2019-03-08T02:37:18.245Z,22.85
2019-03-08T02:38:18.220Z,22.82
2019-03-08T02:39:18.218Z,23.03
2019-03-08T02:40:18.210Z,22.94
2019-03-08T02:41:18.183Z,22.99
2019-03-08T02:42:18.237Z,23.04
2019-03-08T02:43:18.182Z,23.00
2019-03-08T02:44:18.157Z,23.00
2019-03-08T02:45:18.181Z,22.97
2019-03-08T02:46:18.160Z,23.03
2019-03-08T02:47:18.211Z,23.01
2019-03-08T02:48:18.147Z,23.00
2019-03-08T02:49:18.135Z,23.04
2019-03-08T02:50:18.127Z,22.91
2019-03-08T02:51:18.140Z,23.01
2019-03-08T02:52:18.141Z,23.01
2019-03-08T02:53:18.096Z,22.91
2019-03-08T02:54:18.116Z,22.93
2019-03-08T02:55:18.108Z,22.93
2019-03-08T02:56:18.107Z,22.96
2019-03-08T02:57:18.073Z,22.88
2019-03-08T02:58:18.096Z,22.99
2019-03-08T02:59:18.065Z,22.85
2019-03-08T03:00:18.054Z,22.99
2019-03-08T03:01:18.070Z,22.96
2019-03-08T03:02:18.050Z,23.01
2019-03-08T03:03:18.057Z,22.88
2019-03-08T03:04:18.039Z,22.94
2019-03-08T03:05:18.048Z,22.93
2019-03-08T03:06:18.017Z,22.91
2019-03-08T03:07:18.028Z,22.86
2019-03-08T03:08:18.016Z,22.99
2019-03-08T03:09:18.006Z,23.01
2019-03-08T03:10:17.995Z,22.93
2019-03-08T03:11:17.988Z,22.97
2019-03-08T03:12:17.971Z,23.03
2019-03-08T03:13:17.995Z,23.01
2019-03-08T03:14:17.969Z,22.97
2019-03-08T03:15:18.009Z,23.12
2019-03-08T03:16:17.980Z,22.99
2019-03-08T03:17:18.002Z,23.07
2019-03-08T03:18:17.940Z,23.04
2019-03-08T03:19:17.934Z,23.14
2019-03-08T03:20:17.978Z,23.00
2019-03-08T03:21:17.932Z,23.11
2019-03-08T03:22:17.926Z,23.07
2019-03-08T03:23:17.918Z,23.04
2019-03-08T03:24:17.904Z,23.14
2019-03-08T03:25:17.892Z,23.12
2019-03-08T03:26:17.926Z,23.04
2019-03-08T03:27:17.878Z,23.04
2019-03-08T03:28:17.860Z,23.11
2019-03-08T03:29:17.878Z,22.99
2019-03-08T03:30:17.911Z,23.04
2019-03-08T03:31:17.879Z,23.00
2019-03-08T03:32:17.850Z,22.89
2019-03-08T03:33:17.850Z,22.97
2019-03-08T03:34:17.827Z,23.06
2019-03-08T03:35:17.823Z,22.99
2019-03-08T03:36:17.810Z,22.99
2019-03-08T03:37:17.825Z,22.97
2019-03-08T03:38:17.807Z,22.89
2019-03-08T03:39:17.802Z,23.00
2019-03-08T03:40:17.797Z,22.97
2019-03-08T03:41:17.769Z,23.01
2019-03-08T03:42:17.790Z,22.97
2019-03-08T03:43:17.785Z,22.99
2019-03-08T03:44:17.783Z,23.04
2019-03-08T03:45:17.771Z,23.03
2019-03-08T03:46:17.747Z,22.89
2019-03-08T03:47:17.759Z,22.94
2019-03-08T03:48:17.736Z,23.07
2019-03-08T03:49:17.743Z,23.03
2019-03-08T03:50:18.571Z,23.00
2019-03-08T03:51:17.712Z,23.07
2019-03-08T03:52:17.723Z,23.03
2019-03-08T03:53:17.721Z,23.01
2019-03-08T03:54:17.702Z,22.99
2019-03-08T03:55:17.701Z,23.01
2019-03-08T03:56:17.701Z,23.07
2019-03-08T03:57:17.687Z,23.04
2019-03-08T03:58:17.660Z,23.00
2019-03-08T03:59:17.675Z,23.01
2019-03-08T04:00:17.663Z,23.01
2019-03-08T04:01:17.645Z,22.96
2019-03-08T04:02:17.643Z,23.14
2019-03-08T04:03:17.646Z,23.06
2019-03-08T04:04:17.632Z,22.94
2019-03-08T04:05:17.635Z,22.82
2019-03-08T04:06:17.614Z,22.89
2019-03-08T04:07:17.631Z,22.93
2019-03-08T04:08:17.606Z,22.99
2019-03-08T04:09:17.604Z,22.97
2019-03-08T04:10:17.634Z,23.00
2019-03-08T04:11:17.575Z,23.01
2019-03-08T04:12:17.566Z,23.00
2019-03-08T04:13:17.621Z,22.94
2019-03-08T04:14:17.570Z,22.93
2019-03-08T04:15:17.568Z,22.84
2019-03-08T04:16:17.553Z,22.93
2019-03-08T04:17:17.554Z,22.89
2019-03-08T04:18:17.535Z,22.78
2019-03-08T04:19:17.532Z,22.79
2019-03-08T04:20:17.522Z,22.72
2019-03-08T04:21:17.525Z,22.79
2019-03-08T04:22:17.513Z,22.79
2019-03-08T04:23:17.493Z,22.89
2019-03-08T04:24:17.487Z,22.91
2019-03-08T04:25:17.505Z,22.96
2019-03-08T04:26:17.530Z,22.84
2019-03-08T04:27:17.474Z,22.79
2019-03-08T04:28:17.460Z,22.78
2019-03-08T04:29:17.474Z,22.69
2019-03-08T04:30:17.466Z,22.74
2019-03-08T04:31:17.450Z,22.67
2019-03-08T04:32:17.442Z,22.75
2019-03-08T04:33:17.444Z,22.69
2019-03-08T04:34:17.436Z,22.75
2019-03-08T04:35:17.412Z,22.70
2019-03-08T04:36:17.430Z,22.64
2019-03-08T04:37:17.416Z,22.63
2019-03-08T04:38:17.423Z,22.67
2019-03-08T04:39:17.402Z,22.69
2019-03-08T04:40:17.395Z,22.66
2019-03-08T04:41:17.366Z,22.66
2019-03-08T04:42:17.407Z,22.59
2019-03-08T04:43:17.377Z,22.56
2019-03-08T04:44:17.345Z,22.57
2019-03-08T04:45:17.362Z,22.59
2019-03-08T04:46:17.346Z,22.61
2019-03-08T04:47:17.334Z,22.61
2019-03-08T04:48:17.323Z,22.52
2019-03-08T04:49:17.311Z,22.56
2019-03-08T04:50:17.323Z,22.57
2019-03-08T04:51:17.312Z,22.44
2019-03-08T04:52:17.315Z,22.46
2019-03-08T04:53:17.348Z,22.41
2019-03-08T04:54:17.274Z,22.31
2019-03-08T04:55:17.287Z,22.39
2019-03-08T04:56:17.276Z,22.41
2019-03-08T04:57:17.253Z,22.35
2019-03-08T04:58:17.247Z,22.42
2019-03-08T04:59:17.243Z,22.35
2019-03-08T05:00:17.235Z,22.29
2019-03-08T05:01:17.240Z,22.33
2019-03-08T05:02:17.249Z,22.27
2019-03-08T05:03:17.221Z,22.20
2019-03-08T05:04:17.230Z,22.21
2019-03-08T05:05:17.193Z,22.12
2019-03-08T05:06:17.215Z,22.19
2019-03-08T05:07:17.208Z,22.19
2019-03-08T05:08:17.188Z,22.11
2019-03-08T05:09:17.195Z,22.20
2019-03-08T05:10:17.193Z,22.17
2019-03-08T05:11:17.175Z,22.17
2019-03-08T05:12:17.153Z,22.15
2019-03-08T05:13:17.189Z,22.12
2019-03-08T05:14:17.131Z,22.09
2019-03-08T05:15:17.136Z,22.15
2019-03-08T05:16:17.139Z,22.12
2019-03-08T05:17:17.109Z,22.12
2019-03-08T05:18:17.114Z,22.14
2019-03-08T05:19:17.109Z,22.11
2019-03-08T05:20:17.096Z,22.15
2019-03-08T05:21:17.065Z,22.11
2019-03-08T05:22:17.069Z,22.04
2019-03-08T05:23:17.105Z,22.06
2019-03-08T05:24:17.055Z,22.06
2019-03-08T05:25:17.060Z,22.01
2019-03-08T05:26:17.050Z,22.04
2019-03-08T05:27:17.048Z,22.11
2019-03-08T05:28:17.051Z,22.09
2019-03-08T05:29:17.237Z,22.11
2019-03-08T05:30:17.072Z,22.11
2019-03-08T05:31:17.035Z,22.17
2019-03-08T05:32:17.008Z,22.12
2019-03-08T05:33:16.994Z,22.09
2019-03-08T05:34:16.989Z,22.11
2019-03-08T05:35:16.985Z,22.17
2019-03-08T05:36:16.972Z,22.19
2019-03-08T05:37:16.968Z,22.20
2019-03-08T05:38:16.970Z,22.19
2019-03-08T05:39:16.944Z,22.19
2019-03-08T05:40:16.983Z,22.14
2019-03-08T05:41:16.933Z,22.19
2019-03-08T05:42:16.917Z,22.09
2019-03-08T05:43:16.933Z,22.09
2019-03-08T05:44:16.909Z,22.17
2019-03-08T05:45:16.900Z,22.04
2019-03-08T05:46:16.897Z,21.98
2019-03-08T05:47:16.888Z,21.98
2019-03-08T05:48:16.872Z,22.09
2019-03-08T05:49:16.886Z,22.06
2019-03-08T05:50:16.878Z,22.11
2019-03-08T05:51:16.859Z,22.09
2019-03-08T05:52:16.830Z,22.05
2019-03-08T05:53:16.856Z,22.05
2019-03-08T05:54:16.825Z,21.96
2019-03-08T05:55:16.875Z,22.05
2019-03-08T05:56:16.860Z,22.05
2019-03-08T05:57:16.825Z,22.04
2019-03-08T05:58:16.795Z,21.99
2019-03-08T05:59:16.815Z,22.12
2019-03-08T06:00:16.789Z,22.09
2019-03-08T06:01:16.798Z,22.09
2019-03-08T06:02:16.780Z,22.06
2019-03-08T06:03:16.759Z,22.11
2019-03-08T06:04:16.764Z,22.06
2019-03-08T06:05:16.740Z,22.02
2019-03-08T06:06:16.792Z,22.06
2019-03-08T06:07:16.737Z,22.04
2019-03-08T06:08:16.714Z,22.02
2019-03-08T06:09:16.725Z,22.08
2019-03-08T06:10:16.770Z,22.02
2019-03-08T06:11:16.719Z,22.11
2019-03-08T06:12:16.706Z,22.08
2019-03-08T06:13:16.685Z,22.06
2019-03-08T06:14:16.675Z,22.11
2019-03-08T06:15:16.670Z,22.01
2019-03-08T06:16:16.648Z,21.96
2019-03-08T06:17:16.676Z,22.06
2019-03-08T06:18:16.650Z,22.02
2019-03-08T06:19:16.631Z,22.15
2019-03-08T06:20:16.646Z,22.06
2019-03-08T06:21:16.622Z,22.11
2019-03-08T06:22:16.623Z,22.05
2019-03-08T06:23:16.600Z,22.12
2019-03-08T06:24:16.616Z,22.17
2019-03-08T06:25:16.600Z,22.19
2019-03-08T06:26:16.603Z,22.12
2019-03-08T06:27:16.627Z,22.17
2019-03-08T06:28:16.592Z,22.12
2019-03-08T06:29:18.174Z,22.08
2019-03-08T06:30:16.576Z,22.05
2019-03-08T06:31:16.557Z,22.14
2019-03-08T06:32:16.561Z,22.12
2019-03-08T06:33:16.548Z,22.02
2019-03-08T06:34:16.538Z,22.09
2019-03-08T06:35:16.542Z,22.14
2019-03-08T06:36:16.503Z,22.04
2019-03-08T06:37:16.523Z,22.06
2019-03-08T06:38:16.507Z,22.04
2019-03-08T06:39:16.506Z,22.04
2019-03-08T06:40:16.494Z,22.05
2019-03-08T06:41:16.491Z,22.12
2019-03-08T06:42:16.461Z,22.01
2019-03-08T06:43:16.464Z,22.02
2019-03-08T06:44:16.490Z,21.99
2019-03-08T06:45:16.698Z,22.04
2019-03-08T06:46:16.441Z,22.02
2019-03-08T06:47:16.429Z,22.01
2019-03-08T06:48:16.432Z,22.04
2019-03-08T06:49:16.417Z,22.06
2019-03-08T06:50:16.421Z,22.02
2019-03-08T06:51:16.386Z,22.04
2019-03-08T06:52:16.401Z,22.11
2019-03-08T06:53:16.388Z,22.05
2019-03-08T06:54:16.377Z,22.08
2019-03-08T06:55:16.398Z,22.09
2019-03-08T06:56:16.363Z,22.06
2019-03-08T06:57:16.397Z,22.12
2019-03-08T06:58:16.345Z,22.06
2019-03-08T06:59:16.352Z,22.04
2019-03-08T07:00:16.324Z,22.14
2019-03-08T07:01:16.317Z,22.09
2019-03-08T07:02:16.336Z,22.11
2019-03-08T07:03:16.319Z,22.19
2019-03-08T07:04:16.309Z,22.14
2019-03-08T07:05:16.288Z,22.15
2019-03-08T07:06:16.370Z,22.09
2019-03-08T07:07:16.274Z,22.15
2019-03-08T07:08:16.277Z,22.20
2019-03-08T07:09:16.299Z,22.15
2019-03-08T07:10:16.274Z,22.11
2019-03-08T07:11:16.268Z,22.08
2019-03-08T07:12:16.259Z,22.09
2019-03-08T07:13:16.247Z,22.09
2019-03-08T07:14:16.233Z,22.09
2019-03-08T07:15:16.226Z,22.09
2019-03-08T07:16:16.192Z,22.08
2019-03-08T07:17:16.204Z,22.14
2019-03-08T07:18:16.197Z,22.02
2019-03-08T07:19:16.196Z,22.05
2019-03-08T07:20:16.205Z,22.12
2019-03-08T07:21:16.213Z,22.09
2019-03-08T07:22:16.216Z,22.11
2019-03-08T07:23:16.137Z,22.02
2019-03-08T07:24:16.158Z,22.11
2019-03-08T07:25:16.157Z,22.08
2019-03-08T07:26:16.157Z,22.11
2019-03-08T07:27:16.321Z,22.06
2019-03-08T07:28:16.108Z,22.09
2019-03-08T07:29:16.127Z,22.08
2019-03-08T07:30:16.100Z,22.06
2019-03-08T07:31:16.102Z,22.02
2019-03-08T07:32:17.526Z,22.11
2019-03-08T07:33:16.079Z,22.08
2019-03-08T07:34:16.067Z,22.05
2019-03-08T07:35:16.066Z,21.99
2019-03-08T07:36:16.064Z,22.04
2019-03-08T07:37:16.045Z,21.96
2019-03-08T07:38:16.064Z,21.91
2019-03-08T07:39:16.052Z,21.98
2019-03-08T07:40:16.039Z,21.86
2019-03-08T07:41:16.015Z,21.96
2019-03-08T07:42:16.056Z,21.94
2019-03-08T07:43:16.000Z,21.94
2019-03-08T07:44:16.045Z,21.94
2019-03-08T07:45:16.037Z,21.98
2019-03-08T07:46:15.988Z,21.98
2019-03-08T07:47:15.997Z,21.93
2019-03-08T07:48:15.960Z,22.05
2019-03-08T07:49:15.952Z,21.98
2019-03-08T07:50:15.943Z,22.01
2019-03-08T07:51:15.933Z,21.93
2019-03-08T07:52:15.952Z,22.04
2019-03-08T07:53:15.950Z,21.94
2019-03-08T07:54:15.920Z,21.89
2019-03-08T07:55:15.904Z,21.89
2019-03-08T07:56:15.906Z,21.93
2019-03-08T07:57:15.892Z,21.91
2019-03-08T07:58:15.950Z,21.93
2019-03-08T07:59:15.882Z,21.96
2019-03-08T08:00:15.922Z,21.94
2019-03-08T08:01:15.857Z,21.96
2019-03-08T08:02:15.850Z,21.93
2019-03-08T08:03:15.855Z,21.90
2019-03-08T08:04:15.845Z,21.93
2019-03-08T08:05:15.823Z,21.93
2019-03-08T08:06:15.821Z,21.89
2019-03-08T08:07:15.825Z,21.91
2019-03-08T08:08:15.807Z,21.91
2019-03-08T08:09:15.820Z,21.91
2019-03-08T08:10:15.794Z,21.91
2019-03-08T08:11:15.803Z,21.89
2019-03-08T08:12:15.777Z,21.83
2019-03-08T08:13:15.813Z,21.91
2019-03-08T08:14:15.758Z,21.85
2019-03-08T08:15:15.777Z,21.86
2019-03-08T08:16:15.742Z,21.81
2019-03-08T08:17:15.749Z,21.82
2019-03-08T08:18:15.733Z,21.86
2019-03-08T08:19:15.721Z,21.86
2019-03-08T08:20:16.662Z,21.90
2019-03-08T08:21:15.732Z,21.85
2019-03-08T08:22:15.700Z,21.86
2019-03-08T08:23:15.705Z,21.86
2019-03-08T08:24:15.741Z,21.75
2019-03-08T08:25:15.659Z,21.86
2019-03-08T08:26:15.656Z,21.81
2019-03-08T08:27:15.653Z,21.91
2019-03-08T08:28:15.708Z,21.81
2019-03-08T08:29:15.685Z,21.82
2019-03-08T08:30:15.641Z,21.86
2019-03-08T08:31:15.623Z,21.90
2019-03-08T08:32:15.610Z,21.85
2019-03-08T08:33:16.732Z,21.91
2019-03-08T08:34:15.600Z,21.89
2019-03-08T08:35:15.605Z,21.89
2019-03-08T08:36:15.597Z,21.91
2019-03-08T08:37:15.634Z,21.89
2019-03-08T08:38:15.570Z,21.91
2019-03-08T08:39:15.585Z,21.85
2019-03-08T08:40:15.566Z,21.91
2019-03-08T08:41:15.561Z,21.90
2019-03-08T08:42:15.544Z,21.91
2019-03-08T08:43:15.542Z,21.96
2019-03-08T08:44:15.576Z,21.86
2019-03-08T08:45:15.509Z,21.96
2019-03-08T08:46:15.506Z,21.94
2019-03-08T08:47:15.499Z,21.96
2019-03-08T08:48:15.520Z,21.94
2019-03-08T08:49:15.488Z,21.96
2019-03-08T08:50:15.484Z,21.89
2019-03-08T08:51:15.481Z,21.94
2019-03-08T08:52:15.468Z,21.91
2019-03-08T08:53:15.470Z,21.86
2019-03-08T08:54:15.460Z,21.96
2019-03-08T08:55:15.437Z,22.02
2019-03-08T08:56:15.429Z,22.02
2019-03-08T08:57:15.421Z,21.98
2019-03-08T08:58:15.418Z,21.99
2019-03-08T08:59:15.428Z,21.99
2019-03-08T09:00:15.416Z,22.01
2019-03-08T09:01:15.403Z,21.94
2019-03-08T09:02:15.382Z,22.04
2019-03-08T09:03:15.396Z,22.01
2019-03-08T09:04:15.369Z,21.94
2019-03-08T09:05:15.369Z,21.93
2019-03-08T09:06:15.354Z,21.91
2019-03-08T09:07:15.364Z,21.98
2019-03-08T09:08:15.343Z,21.94
2019-03-08T09:09:15.332Z,21.91
2019-03-08T09:10:15.336Z,21.96
2019-03-08T09:11:15.336Z,21.96
2019-03-08T09:12:15.301Z,21.91
2019-03-08T09:13:15.309Z,21.89
2019-03-08T09:14:15.295Z,21.91
2019-03-08T09:15:15.297Z,21.90
2019-03-08T09:16:15.292Z,21.96
2019-03-08T09:17:15.282Z,21.93
2019-03-08T09:18:15.267Z,21.96
2019-03-08T09:19:15.265Z,21.93
2019-03-08T09:20:15.230Z,21.98
2019-03-08T09:21:15.255Z,21.91
2019-03-08T09:22:15.231Z,21.93
2019-03-08T09:23:15.234Z,21.94
2019-03-08T09:24:15.217Z,21.94
2019-03-08T09:25:15.303Z,21.98
2019-03-08T09:26:15.200Z,21.93
2019-03-08T09:27:15.181Z,21.98
2019-03-08T09:28:15.179Z,22.05
2019-03-08T09:29:15.193Z,21.99
2019-03-08T09:30:15.183Z,22.05
2019-03-08T09:31:15.166Z,22.01
2019-03-08T09:32:15.164Z,22.05
2019-03-08T09:33:15.155Z,22.05
2019-03-08T09:34:15.134Z,22.05
2019-03-08T09:35:15.132Z,22.04
2019-03-08T09:36:15.120Z,22.04
2019-03-08T09:37:15.120Z,22.06
2019-03-08T09:38:15.087Z,22.06
2019-03-08T09:39:15.082Z,22.05
2019-03-08T09:40:15.100Z,22.05
2019-03-08T09:41:15.088Z,22.08
2019-03-08T09:42:15.095Z,21.98
2019-03-08T09:43:15.094Z,22.11
2019-03-08T09:44:15.054Z,22.08
2019-03-08T09:45:15.079Z,22.05
2019-03-08T09:46:15.025Z,22.15
2019-03-08T09:47:15.033Z,22.15
2019-03-08T09:48:15.040Z,22.11
2019-03-08T09:49:15.027Z,22.19
2019-03-08T09:50:15.010Z,22.21
2019-03-08T09:51:14.998Z,22.15
2019-03-08T09:52:14.998Z,22.15
2019-03-08T09:53:15.006Z,22.12
2019-03-08T09:54:15.025Z,22.29
2019-03-08T09:55:14.963Z,22.24
2019-03-08T09:56:14.972Z,22.29
2019-03-08T09:57:14.969Z,22.29
2019-03-08T09:58:14.957Z,22.26
2019-03-08T09:59:14.939Z,22.31
2019-03-08T10:00:14.948Z,22.42
2019-03-08T10:01:16.904Z,22.38
2019-03-08T10:02:14.928Z,22.44
2019-03-08T10:03:14.912Z,22.41
2019-03-08T10:04:14.896Z,22.39
2019-03-08T10:05:14.915Z,22.44
2019-03-08T10:06:14.893Z,22.44
2019-03-08T10:07:14.895Z,22.41
2019-03-08T10:08:14.874Z,22.39
2019-03-08T10:09:14.885Z,22.42
2019-03-08T10:10:14.856Z,22.46
2019-03-08T10:11:14.854Z,22.51
2019-03-08T10:12:14.865Z,22.49
2019-03-08T10:13:14.841Z,22.49
2019-03-08T10:14:14.844Z,22.56
2019-03-08T10:15:14.868Z,22.60
2019-03-08T10:16:14.813Z,22.56
2019-03-08T10:17:14.816Z,22.61
2019-03-08T10:18:14.819Z,22.60
2019-03-08T10:19:14.801Z,22.61
2019-03-08T10:20:14.798Z,22.59
2019-03-08T10:21:14.782Z,22.66
2019-03-08T10:22:14.790Z,22.67
2019-03-08T10:23:19.928Z,22.72
2019-03-08T10:24:14.748Z,22.75
2019-03-08T10:25:14.737Z,22.81
2019-03-08T10:26:14.761Z,22.81
2019-03-08T10:27:14.741Z,22.88
2019-03-08T10:28:14.733Z,22.85
2019-03-08T10:29:14.722Z,22.94
2019-03-08T10:30:14.734Z,22.82
2019-03-08T10:31:14.706Z,22.88
2019-03-08T10:32:14.741Z,22.99
2019-03-08T10:33:14.702Z,22.97
2019-03-08T10:34:14.710Z,23.14
2019-03-08T10:35:23.571Z,22.93
2019-03-08T10:36:14.664Z,23.01
2019-03-08T10:37:14.669Z,23.03
2019-03-08T10:38:22.394Z,23.09
2019-03-08T10:39:14.709Z,22.94
2019-03-08T10:40:14.642Z,23.06
2019-03-08T10:41:14.705Z,23.11
2019-03-08T10:42:14.634Z,23.12
2019-03-08T10:43:14.622Z,23.11
2019-03-08T10:44:15.537Z,23.12
2019-03-08T10:45:14.606Z,23.03
2019-03-08T10:46:15.926Z,23.15
2019-03-08T10:47:14.598Z,23.06
2019-03-08T10:48:14.606Z,23.19
2019-03-08T10:49:14.576Z,23.16
2019-03-08T10:50:14.583Z,23.14
2019-03-08T10:51:14.578Z,23.16
2019-03-08T10:52:17.511Z,23.32
2019-03-08T10:53:14.546Z,23.34
2019-03-08T10:54:14.547Z,23.25
2019-03-08T10:55:14.544Z,23.34
2019-03-08T10:56:14.543Z,23.37
2019-03-08T10:57:14.543Z,23.37
2019-03-08T10:58:14.520Z,23.23
2019-03-08T10:59:14.525Z,23.25
2019-03-08T11:00:14.526Z,23.29
2019-03-08T11:01:14.497Z,23.29
2019-03-08T11:02:14.514Z,23.35
2019-03-08T11:03:14.477Z,23.41
2019-03-08T11:04:14.939Z,23.45
2019-03-08T11:05:14.471Z,23.44
2019-03-08T11:06:14.478Z,23.47
2019-03-08T11:07:14.468Z,23.49
2019-03-08T11:08:14.449Z,23.53
2019-03-08T11:09:14.436Z,23.52
2019-03-08T11:10:14.446Z,23.63
2019-03-08T11:11:14.426Z,23.64
2019-03-08T11:12:14.435Z,23.63
2019-03-08T11:13:14.424Z,23.69
2019-03-08T11:14:14.405Z,23.60
2019-03-08T11:15:23.817Z,23.72
2019-03-08T11:16:14.414Z,23.64
2019-03-08T11:17:14.405Z,23.63
2019-03-08T11:18:14.415Z,23.71
2019-03-08T11:19:14.385Z,23.68
2019-03-08T11:20:14.384Z,23.78
2019-03-08T11:21:15.058Z,23.72
2019-03-08T11:22:14.366Z,23.77
2019-03-08T11:23:14.387Z,23.75
2019-03-08T11:24:14.366Z,23.86
2019-03-08T11:25:14.341Z,23.84
2019-03-08T11:26:14.540Z,23.78
2019-03-08T11:27:14.380Z,23.71
2019-03-08T11:28:20.891Z,23.72
2019-03-08T11:29:14.329Z,23.87
2019-03-08T11:30:14.309Z,23.84
2019-03-08T11:31:14.308Z,23.86
2019-03-08T11:32:22.514Z,23.92
2019-03-08T11:33:14.295Z,23.86
2019-03-08T11:34:14.290Z,23.90
2019-03-08T11:35:14.281Z,24.00
2019-03-08T11:36:14.286Z,24.00
2019-03-08T11:37:14.280Z,23.96
2019-03-08T11:38:14.283Z,24.00
2019-03-08T11:39:14.251Z,24.02
2019-03-08T11:40:14.263Z,24.04
2019-03-08T11:41:14.630Z,24.02
2019-03-08T11:42:14.249Z,24.15
2019-03-08T11:43:14.223Z,24.08
2019-03-08T11:44:14.569Z,24.11
2019-03-08T11:45:14.205Z,24.09
2019-03-08T11:46:14.256Z,24.12
2019-03-08T11:47:14.220Z,24.21
2019-03-08T11:48:14.213Z,24.29
2019-03-08T11:49:14.199Z,24.34
2019-03-08T11:50:14.188Z,24.30
2019-03-08T11:51:14.161Z,24.30
2019-03-08T11:52:14.180Z,24.23
2019-03-08T11:53:14.167Z,24.34
2019-03-08T11:54:14.156Z,24.44
2019-03-08T11:55:14.156Z,24.59
2019-03-08T11:56:14.142Z,24.49
2019-03-08T11:57:14.151Z,24.55
2019-03-08T11:58:14.123Z,24.66
2019-03-08T11:59:14.129Z,24.64
2019-03-08T12:00:14.118Z,24.71
2019-03-08T12:01:14.126Z,24.82
2019-03-08T12:02:14.111Z,24.89
2019-03-08T12:03:14.121Z,24.87
2019-03-08T12:04:14.109Z,25.07
2019-03-08T12:05:14.092Z,25.07
2019-03-08T12:06:14.098Z,25.12
2019-03-08T12:07:14.082Z,25.19
2019-03-08T12:08:14.087Z,25.09
2019-03-08T12:09:14.077Z,25.31
2019-03-08T12:10:14.111Z,25.39
2019-03-08T12:11:14.064Z,25.29
2019-03-08T12:12:14.107Z,25.31
2019-03-08T12:13:14.050Z,25.31
2019-03-08T12:14:14.095Z,25.27
2019-03-08T12:15:14.490Z,25.34
2019-03-08T12:16:14.023Z,25.35
2019-03-08T12:17:14.068Z,25.27
2019-03-08T12:18:14.029Z,25.39
2019-03-08T12:19:14.028Z,25.46
2019-03-08T12:20:14.022Z,25.49
2019-03-08T12:21:17.494Z,25.56
2019-03-08T12:22:14.023Z,25.60
2019-03-08T12:23:13.980Z,25.75
2019-03-08T12:24:13.997Z,25.74
2019-03-08T12:25:14.030Z,25.76
2019-03-08T12:26:13.981Z,25.72
2019-03-08T12:27:13.959Z,25.93
2019-03-08T12:28:13.979Z,25.89
2019-03-08T12:29:13.956Z,25.90
2019-03-08T12:30:13.957Z,26.08
2019-03-08T12:31:13.972Z,26.00
2019-03-08T12:32:13.961Z,26.17
2019-03-08T12:33:13.948Z,26.28
2019-03-08T12:34:13.964Z,26.27
2019-03-08T12:35:13.940Z,26.41
2019-03-08T12:36:13.927Z,26.57
2019-03-08T12:37:13.936Z,26.54
2019-03-08T12:38:13.973Z,26.59
2019-03-08T12:39:13.913Z,26.69
2019-03-08T12:40:13.917Z,26.78
2019-03-08T12:41:13.916Z,26.84
2019-03-08T12:42:13.913Z,26.94
2019-03-08T12:43:13.903Z,27.03
2019-03-08T12:44:13.880Z,27.38
2019-03-08T12:45:13.904Z,27.23
2019-03-08T12:46:13.891Z,27.18
2019-03-08T12:47:13.895Z,27.15
2019-03-08T12:48:13.891Z,27.34
2019-03-08T12:49:13.876Z,27.46
2019-03-08T12:50:13.866Z,27.48
2019-03-08T12:51:13.880Z,27.58
2019-03-08T12:52:13.870Z,27.68